PVG weather

Shanghai Pudong International Airport
Shanghai, Shanghai Municipality, China

Public forecast

Using degrees Celsius for public forecast. Weather courtesy of forecast.io.

Current aviation weather report (METAR) for Shanghai Pudong International Airport

Retrieved 2019/11/20 19:30 UTC (0 seconds ago):

ZSPD 201930Z 06004MPS 010V080 9999 SCT040 14/07 Q1027 NOSIG

Aviation forecast (TAF) for Shanghai Pudong International Airport

Retrieved 2019/11/20 18:03 UTC (1 hour ago):

TAF ZSPD 201510Z 2018/2118 08004MPS 5000 BR SCT020 TX18/2106Z TN08/2021Z